createdAt,value
2017-04-17T00:00:05.952Z,99.99
2017-04-17T00:01:28.088Z,99.99
2017-04-17T00:02:50.535Z,99.99
2017-04-17T00:04:12.676Z,99.99
2017-04-17T00:05:34.261Z,99.99
2017-04-17T00:06:56.459Z,99.99
2017-04-17T00:08:18.365Z,99.99
2017-04-17T00:09:40.228Z,99.99
2017-04-17T00:11:02.389Z,99.99
2017-04-17T00:12:24.211Z,99.99
2017-04-17T00:13:47.152Z,99.99
2017-04-17T00:15:09.046Z,99.99
2017-04-17T00:16:31.257Z,99.99
2017-04-17T00:17:53.420Z,99.99
2017-04-17T00:19:16.118Z,99.99
2017-04-17T00:20:37.637Z,99.99
2017-04-17T00:21:59.487Z,99.99
2017-04-17T00:23:21.628Z,99.99
2017-04-17T00:24:44.042Z,99.99
2017-04-17T00:26:05.542Z,99.99
2017-04-17T00:27:27.388Z,99.99
2017-04-17T00:28:49.556Z,99.99
2017-04-17T00:30:12.460Z,99.99
2017-04-17T00:31:34.667Z,99.99
2017-04-17T00:32:56.486Z,99.99
2017-04-17T00:34:18.335Z,99.99
2017-04-17T00:35:41.427Z,99.99
2017-04-17T00:37:03.887Z,99.99
2017-04-17T00:38:26.468Z,99.99
2017-04-17T00:39:48.616Z,99.99
2017-04-17T00:41:11.119Z,99.99
2017-04-17T00:42:33.248Z,99.99
2017-04-17T00:43:55.079Z,99.99
2017-04-17T00:45:16.919Z,99.99
2017-04-17T00:46:39.126Z,99.99
2017-04-17T00:48:00.960Z,99.99
2017-04-17T00:49:22.823Z,99.99
2017-04-17T00:50:44.646Z,99.99
2017-04-17T00:52:06.457Z,99.99
2017-04-17T00:53:28.995Z,99.99
2017-04-17T00:54:50.514Z,99.99
2017-04-17T00:56:12.660Z,99.99
2017-04-17T00:57:34.804Z,99.99
2017-04-17T00:58:56.938Z,99.99
2017-04-17T01:00:19.100Z,99.99
2017-04-17T01:01:40.985Z,99.99
2017-04-17T01:03:03.598Z,99.99
2017-04-17T01:04:25.455Z,99.99
2017-04-17T01:05:47.757Z,99.99
2017-04-17T01:07:09.635Z,99.99
2017-04-17T01:08:31.930Z,99.99
2017-04-17T01:09:54.077Z,99.99
2017-04-17T01:11:16.001Z,99.99
2017-04-17T01:12:38.257Z,99.99
2017-04-17T01:14:00.447Z,99.99
2017-04-17T01:15:21.643Z,99.99
2017-04-17T01:16:43.469Z,99.99
2017-04-17T01:18:05.357Z,99.99
2017-04-17T01:19:27.908Z,99.99
2017-04-17T01:20:50.048Z,99.99
2017-04-17T01:22:12.206Z,99.99
2017-04-17T01:23:33.742Z,99.99
2017-04-17T01:24:56.025Z,99.99
2017-04-17T01:26:17.558Z,99.99
2017-04-17T01:27:40.267Z,99.99
2017-04-17T01:29:02.087Z,99.99
2017-04-17T01:30:24.160Z,99.99
2017-04-17T01:31:46.634Z,99.99
2017-04-17T01:33:08.780Z,99.99
2017-04-17T01:34:30.293Z,99.99
2017-04-17T01:35:51.765Z,99.99
2017-04-17T01:37:14.226Z,99.99
2017-04-17T01:38:35.727Z,99.99
2017-04-17T01:39:57.548Z,99.99
2017-04-17T01:41:19.760Z,99.99
2017-04-17T01:42:41.908Z,99.99
2017-04-17T01:44:04.377Z,99.99
2017-04-17T01:45:26.528Z,99.99
2017-04-17T01:46:48.616Z,99.99
2017-04-17T01:48:10.116Z,99.99
2017-04-17T01:49:31.689Z,99.99
2017-04-17T01:50:53.912Z,99.99
2017-04-17T01:52:16.609Z,99.99
2017-04-17T01:53:38.782Z,99.99
2017-04-17T01:55:00.917Z,99.99
2017-04-17T01:56:23.054Z,99.99
2017-04-17T01:57:45.191Z,99.99
2017-04-17T01:59:06.816Z,99.99
2017-04-17T02:00:28.334Z,99.99
2017-04-17T02:01:50.836Z,99.99
2017-04-17T02:03:13.549Z,99.99
2017-04-17T02:04:36.040Z,99.99
2017-04-17T02:05:58.389Z,99.99
2017-04-17T02:07:20.222Z,99.99
2017-04-17T02:08:42.397Z,99.99
2017-04-17T02:10:03.919Z,99.99
2017-04-17T02:11:25.758Z,99.99
2017-04-17T02:12:47.278Z,99.99
2017-04-17T02:14:09.840Z,99.99
2017-04-17T02:15:31.980Z,99.99
2017-04-17T02:16:53.553Z,99.99
2017-04-17T02:18:15.081Z,99.99
2017-04-17T02:19:37.288Z,99.99
2017-04-17T02:20:59.492Z,99.99
2017-04-17T02:22:21.318Z,99.99
2017-04-17T02:23:43.148Z,99.99
2017-04-17T02:25:06.167Z,99.99
2017-04-17T02:26:28.306Z,99.99
2017-04-17T02:27:49.837Z,99.99
2017-04-17T02:29:11.378Z,99.99
2017-04-17T02:30:33.445Z,99.99
2017-04-17T02:31:55.892Z,99.99
2017-04-17T02:33:17.737Z,99.99
2017-04-17T02:34:39.577Z,99.99
2017-04-17T02:36:01.394Z,99.99
2017-04-17T02:37:23.552Z,99.99
2017-04-17T02:38:45.437Z,99.99
2017-04-17T02:40:07.252Z,99.99
2017-04-17T02:41:29.418Z,99.99
2017-04-17T02:42:51.640Z,99.99
2017-04-17T02:44:13.878Z,99.99
2017-04-17T02:45:35.737Z,99.99
2017-04-17T02:46:57.933Z,99.99
2017-04-17T02:48:19.844Z,99.99
2017-04-17T02:49:41.067Z,99.99
2017-04-17T02:51:03.221Z,99.99
2017-04-17T02:52:25.760Z,99.99
2017-04-17T02:53:48.236Z,99.99
2017-04-17T02:55:10.075Z,99.99
2017-04-17T02:56:31.771Z,99.99
2017-04-17T02:57:53.597Z,99.99
2017-04-17T02:59:15.107Z,99.99
2017-04-17T03:00:36.935Z,99.99
2017-04-17T03:01:59.401Z,99.99
2017-04-17T03:03:22.137Z,99.99
2017-04-17T03:04:44.344Z,99.99
2017-04-17T03:06:06.190Z,99.99
2017-04-17T03:07:28.056Z,99.99
2017-04-17T03:08:50.147Z,99.99
2017-04-17T03:10:11.964Z,99.99
2017-04-17T03:11:34.108Z,99.99
2017-04-17T03:12:55.306Z,99.99
2017-04-17T03:14:17.475Z,99.99
2017-04-17T03:15:39.310Z,99.99
2017-04-17T03:17:00.827Z,99.99
2017-04-17T03:18:22.644Z,99.99
2017-04-17T03:19:45.435Z,99.99
2017-04-17T03:21:06.973Z,99.99
2017-04-17T03:22:29.140Z,99.99
2017-04-17T03:23:50.658Z,99.99
2017-04-17T03:25:12.751Z,99.99
2017-04-17T03:26:34.250Z,99.99
2017-04-17T03:27:56.397Z,99.99
2017-04-17T03:29:18.645Z,99.99
2017-04-17T03:30:40.888Z,99.99
2017-04-17T03:32:03.094Z,99.99
2017-04-17T03:33:24.646Z,99.99
2017-04-17T03:34:46.190Z,99.99
2017-04-17T03:36:08.575Z,99.99
2017-04-17T03:37:30.088Z,99.99
2017-04-17T03:38:51.936Z,99.99
2017-04-17T03:40:13.453Z,99.99
2017-04-17T03:41:35.568Z,99.99
2017-04-17T03:42:57.726Z,99.99
2017-04-17T03:44:19.909Z,99.99
2017-04-17T03:45:42.397Z,99.99
2017-04-17T03:47:04.482Z,99.99
2017-04-17T03:48:25.828Z,99.99
2017-04-17T03:49:48.171Z,99.99
2017-04-17T03:51:10.439Z,99.99
2017-04-17T03:52:32.388Z,99.99
2017-04-17T03:53:54.256Z,99.99
2017-04-17T03:55:16.388Z,99.99
2017-04-17T03:56:38.520Z,99.99
2017-04-17T03:58:00.957Z,99.99
2017-04-17T03:59:22.773Z,99.99
2017-04-17T04:00:44.581Z,99.99
2017-04-17T04:02:06.868Z,99.99
2017-04-17T04:03:28.738Z,99.99
2017-04-17T04:04:50.298Z,99.99
2017-04-17T04:06:11.944Z,99.99
2017-04-17T04:07:32.802Z,99.99
2017-04-17T04:08:54.905Z,99.99
2017-04-17T04:10:17.045Z,99.99
2017-04-17T04:11:38.867Z,99.99
2017-04-17T04:13:01.008Z,99.99
2017-04-17T04:14:22.788Z,99.99
2017-04-17T04:15:45.067Z,99.99
2017-04-17T04:17:07.018Z,99.99
2017-04-17T04:18:28.867Z,99.99
2017-04-17T04:19:50.959Z,99.99
2017-04-17T04:21:12.456Z,99.99
2017-04-17T04:22:34.907Z,99.99
2017-04-17T04:23:56.734Z,99.99
2017-04-17T04:25:19.151Z,99.99
2017-04-17T04:26:41.097Z,99.99
2017-04-17T04:28:02.595Z,99.99
2017-04-17T04:29:24.407Z,99.99
2017-04-17T04:30:46.589Z,99.99
2017-04-17T04:32:07.752Z,99.99
2017-04-17T04:33:29.578Z,99.99
2017-04-17T04:34:51.391Z,99.99
2017-04-17T04:36:12.880Z,99.99
2017-04-17T04:37:35.016Z,99.99
2017-04-17T04:38:57.238Z,99.99
2017-04-17T04:40:19.467Z,99.99
2017-04-17T04:41:41.596Z,99.99
2017-04-17T04:43:04.038Z,99.99
2017-04-17T04:44:25.878Z,99.99
2017-04-17T04:45:47.678Z,99.99
2017-04-17T04:47:10.076Z,99.99
2017-04-17T04:48:31.270Z,99.99
2017-04-17T04:49:53.118Z,99.99
2017-04-17T04:51:15.596Z,99.99
2017-04-17T04:52:38.424Z,99.99
2017-04-17T04:54:00.903Z,99.99
2017-04-17T04:55:22.766Z,99.99
2017-04-17T04:56:44.296Z,99.99
2017-04-17T04:58:06.686Z,99.99
2017-04-17T04:59:28.119Z,99.99
2017-04-17T05:00:50.281Z,99.99
2017-04-17T05:02:11.477Z,99.99
2017-04-17T05:03:33.640Z,99.99
2017-04-17T05:04:55.897Z,99.99
2017-04-17T05:06:17.787Z,99.99
2017-04-17T05:07:39.297Z,99.99
2017-04-17T05:09:01.866Z,99.99
2017-04-17T05:10:24.328Z,99.99
2017-04-17T05:11:46.165Z,99.99
2017-04-17T05:13:07.687Z,99.99
2017-04-17T05:14:30.248Z,99.99
2017-04-17T05:15:52.070Z,99.99
2017-04-17T05:17:14.203Z,99.99
2017-04-17T05:18:36.052Z,99.99
2017-04-17T05:19:58.075Z,99.99
2017-04-17T05:21:19.907Z,99.99
2017-04-17T05:22:41.751Z,99.99
2017-04-17T05:24:04.225Z,99.99
2017-04-17T05:25:25.720Z,99.99
2017-04-17T05:26:47.904Z,99.99
2017-04-17T05:28:10.047Z,99.99
2017-04-17T05:29:32.200Z,99.99
2017-04-17T05:30:54.947Z,99.99
2017-04-17T05:32:17.257Z,99.99
2017-04-17T05:33:39.423Z,99.99
2017-04-17T05:35:01.584Z,99.99
2017-04-17T05:36:24.468Z,99.99
2017-04-17T05:37:46.295Z,99.99
2017-04-17T05:39:08.157Z,99.99
2017-04-17T05:40:29.984Z,99.99
2017-04-17T05:41:52.239Z,99.99
2017-04-17T05:43:14.741Z,99.99
2017-04-17T05:44:36.558Z,99.99
2017-04-17T05:45:58.380Z,99.99
2017-04-17T05:47:20.538Z,99.99
2017-04-17T05:48:42.808Z,99.99
2017-04-17T05:50:04.316Z,99.99
2017-04-17T05:51:25.503Z,99.99
2017-04-17T05:52:47.018Z,99.99
2017-04-17T05:54:09.173Z,99.99
2017-04-17T05:55:31.018Z,99.99
2017-04-17T05:56:52.827Z,97.17
2017-04-17T05:58:15.015Z,96.5
2017-04-17T05:59:36.627Z,96.88
2017-04-17T06:00:58.594Z,97.78
2017-04-17T06:02:20.478Z,98.64
2017-04-17T06:03:42.628Z,99.99
2017-04-17T06:05:05.438Z,99.99
2017-04-17T06:06:27.370Z,99.99
2017-04-17T06:07:49.551Z,99.99
2017-04-17T06:09:11.796Z,99.99
2017-04-17T06:10:33.709Z,99.99
2017-04-17T06:11:55.919Z,99.99
2017-04-17T06:13:17.533Z,99.99
2017-04-17T06:14:40.326Z,99.99
2017-04-17T06:16:02.344Z,99.99
2017-04-17T06:17:24.497Z,99.99
2017-04-17T06:18:46.200Z,91.85
2017-04-17T06:20:08.160Z,82.8
2017-04-17T06:21:29.698Z,74.32
2017-04-17T06:22:51.856Z,69.97
2017-04-17T06:24:13.719Z,64.25
2017-04-17T06:25:35.157Z,57.38
2017-04-17T06:26:57.308Z,51.81
2017-04-17T06:28:19.144Z,48.07
2017-04-17T06:29:40.998Z,45.66
2017-04-17T06:31:03.334Z,42.32
2017-04-17T06:32:25.153Z,42.72
2017-04-17T06:33:47.319Z,46.33
2017-04-17T06:35:08.545Z,48.18
2017-04-17T06:36:31.060Z,47.13
2017-04-17T06:37:53.219Z,48.38
2017-04-17T06:39:15.088Z,51.01
2017-04-17T06:40:36.658Z,54.38
2017-04-17T06:41:59.086Z,57.48
2017-04-17T06:43:20.088Z,60.96
2017-04-17T06:44:42.268Z,63.76
2017-04-17T06:46:04.418Z,66.02
2017-04-17T06:47:26.936Z,66.75
2017-04-17T06:48:49.104Z,67.04
2017-04-17T06:50:11.351Z,66.94
2017-04-17T06:51:33.533Z,61.03
2017-04-17T06:52:56.058Z,53.23
2017-04-17T06:54:17.588Z,51.3
2017-04-17T06:55:39.098Z,52.14
2017-04-17T06:57:01.420Z,50.29
2017-04-17T06:58:23.636Z,47.97
2017-04-17T06:59:45.816Z,46.96
2017-04-17T07:01:07.975Z,49.79
2017-04-17T07:02:29.528Z,53.16
2017-04-17T07:03:52.066Z,58.25
2017-04-17T07:05:14.220Z,62.27
2017-04-17T07:06:36.089Z,65.83
2017-04-17T07:07:58.249Z,68.66
2017-04-17T07:09:20.054Z,71.64
2017-04-17T07:10:41.678Z,73.8
2017-04-17T07:12:03.248Z,75.04
2017-04-17T07:13:25.067Z,79.14
2017-04-17T07:14:46.955Z,81.05
2017-04-17T07:16:08.750Z,82.67
2017-04-17T07:17:30.906Z,83.19
2017-04-17T07:18:52.807Z,83.1
2017-04-17T07:20:15.407Z,84.05
2017-04-17T07:21:37.895Z,83.19
2017-04-17T07:23:00.258Z,83.19
2017-04-17T07:24:21.778Z,83.58
2017-04-17T07:25:44.102Z,80.82
2017-04-17T07:27:06.569Z,73.19
2017-04-17T07:28:29.149Z,64.78
2017-04-17T07:29:51.815Z,60.74
2017-04-17T07:31:13.950Z,56.6
2017-04-17T07:32:35.774Z,54.86
2017-04-17T07:33:57.058Z,49.91
2017-04-17T07:35:18.608Z,49.62
2017-04-17T07:36:40.515Z,46
2017-04-17T07:38:02.381Z,47.1
2017-04-17T07:39:24.557Z,42.79
2017-04-17T07:40:46.694Z,41.58
2017-04-17T07:42:09.129Z,42
2017-04-17T07:43:31.619Z,42.56
2017-04-17T07:44:53.870Z,40.35
2017-04-17T07:46:16.338Z,46.96
2017-04-17T07:47:38.450Z,54.57
2017-04-17T07:49:00.944Z,64.28
2017-04-17T07:50:22.840Z,72.92
2017-04-17T07:51:44.364Z,81.37
2017-04-17T07:53:07.180Z,85.66
2017-04-17T07:55:01.084Z,89.38
2017-04-17T07:56:22.930Z,89.57
2017-04-17T07:57:44.809Z,91.99
2017-04-17T07:59:07.668Z,93.04
2017-04-17T08:00:29.944Z,96.98
2017-04-17T08:01:52.208Z,92.51
2017-04-17T08:03:14.620Z,89.86
2017-04-17T08:04:37.216Z,90.85
2017-04-17T08:05:59.368Z,92.18
2017-04-17T08:07:21.561Z,90.18
2017-04-17T08:08:44.095Z,88.32
2017-04-17T08:10:05.949Z,81.66
2017-04-17T08:11:27.811Z,82.04
2017-04-17T08:12:49.719Z,84.52
2017-04-17T08:14:12.187Z,87.32
2017-04-17T08:15:34.457Z,87.52
2017-04-17T08:16:55.994Z,83.23
2017-04-17T08:18:17.618Z,77.43
2017-04-17T08:19:39.883Z,80.95
2017-04-17T08:21:01.438Z,85.61
2017-04-17T08:22:23.595Z,84.95
2017-04-17T08:23:45.418Z,83.37
2017-04-17T08:25:07.568Z,82.99
2017-04-17T08:26:29.488Z,85.47
2017-04-17T08:27:51.618Z,83.37
2017-04-17T08:29:13.559Z,81.79
2017-04-17T08:30:36.028Z,81.23
2017-04-17T08:31:58.328Z,77.64
2017-04-17T08:33:20.813Z,74.6
2017-04-17T08:34:42.378Z,78.37
2017-04-17T08:36:05.130Z,76.27
2017-04-17T08:37:27.296Z,74.65
2017-04-17T08:38:49.217Z,71.98
2017-04-17T08:40:10.735Z,74.18
2017-04-17T08:41:33.184Z,76.56
2017-04-17T08:42:55.018Z,76.03
2017-04-17T08:44:17.176Z,73.45
2017-04-17T08:45:39.346Z,72.85
2017-04-17T08:47:01.248Z,73.61
2017-04-17T08:48:23.396Z,71.98
2017-04-17T08:49:45.564Z,74.04
2017-04-17T08:51:07.412Z,76.52
2017-04-17T08:52:30.289Z,75.23
2017-04-17T08:53:52.445Z,77.74
2017-04-17T08:55:14.286Z,76.03
2017-04-17T08:56:35.819Z,75.84
2017-04-17T08:57:57.378Z,74.88
2017-04-17T08:59:19.908Z,73.51
2017-04-17T09:00:42.198Z,74.43
2017-04-17T09:02:04.056Z,75.24
2017-04-17T09:03:26.569Z,75.96
2017-04-17T09:04:48.742Z,73.69
2017-04-17T09:06:10.956Z,73.53
2017-04-17T09:07:33.137Z,73.44
2017-04-17T09:08:55.009Z,71.72
2017-04-17T09:10:16.548Z,69.92
2017-04-17T09:11:38.459Z,70.01
2017-04-17T09:13:00.950Z,69.19
2017-04-17T09:14:23.036Z,69.57
2017-04-17T09:15:44.961Z,68.46
2017-04-17T09:17:07.172Z,69.79
2017-04-17T09:18:29.462Z,71.03
2017-04-17T09:19:51.684Z,69.74
2017-04-17T09:21:14.156Z,68.59
2017-04-17T09:22:36.661Z,69.23
2017-04-17T09:23:58.503Z,69.99
2017-04-17T09:25:21.118Z,69.51
2017-04-17T09:26:43.330Z,69.04
2017-04-17T09:28:06.248Z,70.27
2017-04-17T09:29:28.825Z,70.9
2017-04-17T09:30:51.610Z,71.19
2017-04-17T09:32:13.957Z,73
2017-04-17T09:33:36.966Z,73.34
2017-04-17T09:34:58.509Z,72.67
2017-04-17T09:36:20.387Z,72.2
2017-04-17T09:37:41.911Z,71.82
2017-04-17T09:39:04.116Z,70.68
2017-04-17T09:40:26.834Z,72.05
2017-04-17T09:41:49.358Z,71.19
2017-04-17T09:43:11.517Z,71.8
2017-04-17T09:44:33.691Z,73.61
2017-04-17T09:45:56.199Z,70.59
2017-04-17T09:47:18.608Z,67.86
2017-04-17T09:48:40.797Z,68.76
2017-04-17T09:50:03.278Z,66.28
2017-04-17T09:51:25.789Z,62.78
2017-04-17T09:52:48.635Z,63.48
2017-04-17T09:54:10.337Z,61.69
2017-04-17T09:55:32.507Z,63.39
2017-04-17T09:56:54.677Z,62.71
2017-04-17T09:58:16.774Z,65.17
2017-04-17T09:59:39.002Z,65.3
2017-04-17T10:01:01.169Z,62.24
2017-04-17T10:02:23.700Z,60.74
2017-04-17T10:03:46.239Z,60.64
2017-04-17T10:05:08.394Z,59.05
2017-04-17T10:06:30.686Z,58.12
2017-04-17T10:07:52.530Z,57.46
2017-04-17T10:09:14.361Z,57.07
2017-04-17T10:10:37.018Z,58.29
2017-04-17T10:11:58.854Z,59.69
2017-04-17T10:13:21.038Z,59.88
2017-04-17T10:14:42.985Z,61
2017-04-17T10:16:04.849Z,59.85
2017-04-17T10:17:27.298Z,61.22
2017-04-17T10:18:49.191Z,62.43
2017-04-17T10:20:11.758Z,64.24
2017-04-17T10:21:34.064Z,61.38
2017-04-17T10:22:56.019Z,61
2017-04-17T10:24:18.348Z,60.91
2017-04-17T10:25:40.752Z,60.91
2017-04-17T10:27:02.579Z,55.09
2017-04-17T10:28:24.737Z,54.07
2017-04-17T10:29:46.896Z,53.95
2017-04-17T10:31:09.031Z,53.38
2017-04-17T10:32:31.178Z,54.24
2017-04-17T10:33:53.396Z,59.38
2017-04-17T10:35:15.556Z,63.7
2017-04-17T10:36:37.966Z,61.07
2017-04-17T10:38:00.080Z,57.82
2017-04-17T10:39:22.250Z,57.92
2017-04-17T10:40:44.108Z,58.58
2017-04-17T10:42:06.199Z,60.36
2017-04-17T10:43:28.691Z,61.1
2017-04-17T10:44:50.937Z,62.62
2017-04-17T10:46:12.902Z,69.13
2017-04-17T10:47:35.720Z,69.32
2017-04-17T10:48:58.015Z,71.47
2017-04-17T10:50:20.521Z,72.81
2017-04-17T10:51:42.091Z,71
2017-04-17T10:53:04.241Z,71.7
2017-04-17T10:54:26.854Z,70.84
2017-04-17T10:55:49.461Z,69.79
2017-04-17T10:57:11.000Z,70.12
2017-04-17T10:58:34.100Z,68.24
2017-04-17T10:59:56.667Z,65.48
2017-04-17T11:01:19.239Z,64.37
2017-04-17T11:02:41.807Z,70.19
2017-04-17T11:04:04.314Z,66.69
2017-04-17T11:05:26.177Z,65.26
2017-04-17T11:06:48.029Z,65.17
2017-04-17T11:08:10.189Z,65.74
2017-04-17T11:09:32.779Z,67.99
2017-04-17T11:10:54.308Z,73.87
2017-04-17T11:12:16.769Z,73.99
2017-04-17T11:13:38.930Z,78.34
2017-04-17T11:15:01.139Z,81.25
2017-04-17T11:16:22.665Z,86.57
2017-04-17T11:17:44.990Z,83.53
2017-04-17T11:19:07.165Z,83.06
2017-04-17T11:20:30.054Z,84.77
2017-04-17T11:21:52.539Z,81.2
2017-04-17T11:23:15.025Z,87.47
2017-04-17T11:24:36.877Z,87.85
2017-04-17T11:25:59.639Z,82.53
2017-04-17T11:27:21.479Z,85.52
2017-04-17T11:28:43.962Z,78.52
2017-04-17T11:30:05.828Z,73.1
2017-04-17T11:31:28.555Z,74.24
2017-04-17T11:32:51.039Z,80.13
2017-04-17T11:34:13.515Z,71.76
2017-04-17T11:35:34.718Z,71.44
2017-04-17T11:36:57.308Z,72.67
2017-04-17T11:38:19.266Z,75.24
2017-04-17T11:39:41.114Z,76.57
2017-04-17T11:41:02.647Z,72.39
2017-04-17T11:42:25.510Z,74.8
2017-04-17T11:43:48.090Z,70.24
2017-04-17T11:45:10.402Z,71.13
2017-04-17T11:46:32.267Z,68.65
2017-04-17T11:47:54.677Z,66.69
2017-04-17T11:49:16.522Z,64.43
2017-04-17T11:50:38.997Z,65.42
2017-04-17T11:52:00.202Z,62.15
2017-04-17T11:53:22.739Z,60.27
2017-04-17T11:54:44.588Z,60.78
2017-04-17T11:56:07.082Z,61.25
2017-04-17T11:57:29.233Z,59.25
2017-04-17T11:58:52.114Z,59.22
2017-04-17T12:00:14.050Z,57.89
2017-04-17T12:01:35.919Z,60.08
2017-04-17T12:02:58.386Z,61.41
2017-04-17T12:04:20.829Z,66.24
2017-04-17T12:05:43.385Z,64.15
2017-04-17T12:07:05.558Z,64.34
2017-04-17T12:08:27.863Z,64.81
2017-04-17T12:09:50.759Z,64.53
2017-04-17T12:11:12.910Z,65.2
2017-04-17T12:12:35.176Z,63.54
2017-04-17T12:13:57.429Z,63.45
2017-04-17T12:15:19.544Z,62.68
2017-04-17T12:16:42.060Z,64.87
2017-04-17T12:18:04.371Z,66.59
2017-04-17T12:19:30.983Z,69.74
2017-04-17T12:20:52.878Z,65.77
2017-04-17T12:22:15.060Z,64.53
2017-04-17T12:23:37.458Z,55.57
2017-04-17T12:24:59.635Z,53.76
2017-04-17T12:26:22.257Z,54.04
2017-04-17T12:27:44.499Z,55.09
2017-04-17T12:29:07.006Z,57.03
2017-04-17T12:30:29.199Z,56.84
2017-04-17T12:31:51.287Z,54.36
2017-04-17T12:33:13.464Z,56.81
2017-04-17T12:34:35.857Z,56.52
2017-04-17T12:35:57.722Z,55.95
2017-04-17T12:37:20.081Z,55.19
2017-04-17T12:38:42.228Z,52.14
2017-04-17T12:40:04.410Z,53.38
2017-04-17T12:41:26.665Z,53.47
2017-04-17T12:42:49.299Z,53.21
2017-04-17T12:44:11.845Z,53.41
2017-04-17T12:45:33.742Z,54.17
2017-04-17T12:46:55.997Z,50.85
2017-04-17T12:48:18.211Z,52.45
2017-04-17T12:49:40.708Z,54.45
2017-04-17T12:51:03.194Z,51.43
2017-04-17T12:52:25.349Z,51.97
2017-04-17T12:53:47.769Z,51.97
2017-04-17T12:55:09.941Z,51.68
2017-04-17T12:56:32.130Z,52.73
2017-04-17T12:57:54.424Z,49.49
2017-04-17T12:59:16.996Z,50.99
2017-04-17T13:00:39.187Z,52.33
2017-04-17T13:02:01.411Z,51.5
2017-04-17T13:03:24.030Z,52.55
2017-04-17T13:04:46.669Z,52.64
2017-04-17T13:06:08.850Z,52.48
2017-04-17T13:07:31.343Z,52.73
2017-04-17T13:08:53.635Z,54.24
2017-04-17T13:10:15.850Z,54.52
2017-04-17T13:11:37.717Z,55
2017-04-17T13:12:59.668Z,54.3
2017-04-17T13:14:22.198Z,54.68
2017-04-17T13:15:44.740Z,55.35
2017-04-17T13:17:07.240Z,55.57
2017-04-17T13:18:29.767Z,56.04
2017-04-17T13:19:51.705Z,56.97
2017-04-17T13:21:14.609Z,55.73
2017-04-17T13:22:36.907Z,53.54
2017-04-17T13:23:58.651Z,54.02
2017-04-17T13:25:20.838Z,56.46
2017-04-17T13:26:43.587Z,56.56
2017-04-17T13:28:05.744Z,57.92
2017-04-17T13:29:28.161Z,57.67
2017-04-17T13:30:50.399Z,55.69
2017-04-17T13:32:12.557Z,57.6
2017-04-17T13:33:34.715Z,57.12
2017-04-17T13:34:57.205Z,55.69
2017-04-17T13:36:19.438Z,54.48
2017-04-17T13:37:42.079Z,55.31
2017-04-17T13:39:04.265Z,55.6
2017-04-17T13:40:26.495Z,56.93
2017-04-17T13:41:49.097Z,54.64
2017-04-17T13:43:12.021Z,54.83
2017-04-17T13:44:34.539Z,53.59
2017-04-17T13:45:57.068Z,55.21
2017-04-17T13:47:19.248Z,54.26
2017-04-17T13:48:41.438Z,51.68
2017-04-17T13:50:03.638Z,52.52
2017-04-17T13:51:25.511Z,52.23
2017-04-17T13:52:48.012Z,51.66
2017-04-17T13:54:10.918Z,51.85
2017-04-17T13:55:33.406Z,53.66
2017-04-17T13:56:56.030Z,53.95
2017-04-17T13:58:18.535Z,53.76
2017-04-17T13:59:41.349Z,53
2017-04-17T14:01:03.527Z,53.85
2017-04-17T14:02:25.049Z,52.55
2017-04-17T14:03:47.230Z,51.9
2017-04-17T14:05:09.667Z,51.33
2017-04-17T14:06:31.526Z,53.45
2017-04-17T14:07:54.032Z,51.26
2017-04-17T14:09:15.959Z,51.43
2017-04-17T14:10:38.440Z,51.62
2017-04-17T14:12:00.318Z,52.83
2017-04-17T14:13:22.076Z,54.55
2017-04-17T14:14:44.227Z,54.9
2017-04-17T14:16:06.649Z,56.59
2017-04-17T14:17:28.841Z,59.16
2017-04-17T14:18:51.330Z,59.35
2017-04-17T14:20:13.509Z,60.56
2017-04-17T14:21:36.632Z,61.9
2017-04-17T14:22:58.901Z,61.9
2017-04-17T14:24:20.772Z,62.27
2017-04-17T14:25:43.407Z,61.9
2017-04-17T14:27:05.835Z,62.56
2017-04-17T14:28:28.338Z,62.34
2017-04-17T14:29:50.219Z,62.91
2017-04-17T14:31:12.078Z,62.81
2017-04-17T14:32:34.947Z,62.81
2017-04-17T14:33:57.422Z,63.01
2017-04-17T14:35:19.705Z,62.08
2017-04-17T14:36:41.605Z,60.94
2017-04-17T14:38:04.226Z,60.75
2017-04-17T14:39:26.706Z,61.22
2017-04-17T14:40:49.082Z,61.8
2017-04-17T14:42:11.262Z,60.56
2017-04-17T14:43:34.022Z,61.51
2017-04-17T14:44:55.888Z,60.18
2017-04-17T14:46:18.104Z,59.23
2017-04-17T14:47:40.259Z,59.23
2017-04-17T14:49:03.138Z,58.08
2017-04-17T14:50:25.354Z,56.85
2017-04-17T14:51:47.587Z,56.85
2017-04-17T14:53:09.187Z,58.75
2017-04-17T14:54:31.638Z,57.23
2017-04-17T14:55:54.168Z,56.85
2017-04-17T14:57:16.659Z,57.13
2017-04-17T14:58:38.814Z,57.32
2017-04-17T15:00:00.966Z,56.85
2017-04-17T15:01:23.217Z,56.85
2017-04-17T15:02:45.766Z,57.42
2017-04-17T15:04:07.922Z,58.44
2017-04-17T15:05:30.851Z,60.05
2017-04-17T15:06:53.030Z,61.86
2017-04-17T15:08:15.652Z,60.37
2017-04-17T15:09:37.692Z,60.18
2017-04-17T15:11:00.515Z,59.99
2017-04-17T15:12:22.995Z,59.7
2017-04-17T15:13:44.857Z,59.32
2017-04-17T15:15:07.421Z,59.51
2017-04-17T15:16:29.917Z,60.18
2017-04-17T15:17:52.095Z,59.42
2017-04-17T15:19:14.577Z,58.65
2017-04-17T15:20:36.577Z,59.03
2017-04-17T15:21:59.389Z,57.99
2017-04-17T15:23:21.237Z,57.6
2017-04-17T15:24:43.716Z,57.16
2017-04-17T15:26:05.894Z,57.54
2017-04-17T15:27:28.835Z,55.92
2017-04-17T15:28:51.013Z,54.21
2017-04-17T15:30:13.337Z,54.3
2017-04-17T15:31:35.534Z,54.14
2017-04-17T15:32:58.344Z,53.66
2017-04-17T15:34:20.524Z,53.56
2017-04-17T15:35:43.079Z,54.33
2017-04-17T15:37:05.565Z,54.33
2017-04-17T15:38:28.377Z,54.64
2017-04-17T15:39:50.550Z,55.38
2017-04-17T15:41:12.395Z,54.64
2017-04-17T15:42:34.468Z,56.04
2017-04-17T15:43:57.202Z,57.09
2017-04-17T15:45:19.428Z,55.73
2017-04-17T15:46:41.616Z,55.16
2017-04-17T15:48:03.160Z,55.54
2017-04-17T15:49:25.072Z,54.21
2017-04-17T15:50:47.249Z,54.02
2017-04-17T15:52:09.891Z,54.39
2017-04-17T15:53:32.099Z,55.07
2017-04-17T15:54:54.547Z,56.3
2017-04-17T15:56:17.102Z,56.78
2017-04-17T15:57:39.589Z,56.59
2017-04-17T15:59:01.465Z,57.04
2017-04-17T16:00:24.294Z,54.27
2017-04-17T16:01:46.474Z,53.8
2017-04-17T16:03:08.648Z,55.51
2017-04-17T16:04:30.198Z,56.92
2017-04-17T16:05:53.096Z,58.06
2017-04-17T16:07:14.935Z,58.62
2017-04-17T16:08:37.285Z,60.12
2017-04-17T16:09:59.459Z,60.69
2017-04-17T16:11:21.735Z,61.83
2017-04-17T16:12:44.046Z,61.45
2017-04-17T16:14:06.215Z,61.45
2017-04-17T16:15:28.434Z,59.93
2017-04-17T16:16:50.923Z,60.02
2017-04-17T16:18:12.787Z,60.6
2017-04-17T16:19:35.066Z,60.94
2017-04-17T16:20:56.939Z,61.9
2017-04-17T16:22:19.677Z,62.56
2017-04-17T16:23:41.836Z,63.7
2017-04-17T16:25:04.322Z,62.85
2017-04-17T16:26:26.608Z,62.08
2017-04-17T16:27:49.516Z,61.23
2017-04-17T16:29:11.384Z,61.99
2017-04-17T16:30:33.586Z,61.26
2017-04-17T16:31:55.815Z,60.97
2017-04-17T16:33:18.596Z,60.5
2017-04-17T16:34:40.162Z,59.93
2017-04-17T16:36:02.687Z,60.5
2017-04-17T16:37:25.205Z,61.35
2017-04-17T16:38:47.466Z,61.8
2017-04-17T16:40:09.961Z,61.42
2017-04-17T16:41:33.448Z,61.9
2017-04-17T16:42:56.589Z,61.42
2017-04-17T16:44:19.322Z,61.35
2017-04-17T16:45:41.895Z,60.69
2017-04-17T16:47:04.163Z,60.88
2017-04-17T16:48:26.685Z,59.29
2017-04-17T16:49:49.155Z,58.72
2017-04-17T16:51:11.060Z,59.48
2017-04-17T16:52:33.303Z,58.72
2017-04-17T16:53:55.204Z,58.75
2017-04-17T16:55:17.644Z,59.13
2017-04-17T16:56:40.155Z,60.27
2017-04-17T16:58:02.405Z,61.22
2017-04-17T16:59:24.604Z,61.48
2017-04-17T17:00:47.133Z,61.67
2017-04-17T17:02:09.054Z,62.24
2017-04-17T17:03:30.442Z,60.63
2017-04-17T17:04:53.324Z,59.36
2017-04-17T17:06:15.438Z,60.57
2017-04-17T17:07:37.627Z,60.75
2017-04-17T17:08:59.685Z,61.32
2017-04-17T17:10:22.189Z,62.34
2017-04-17T17:11:43.983Z,63.67
2017-04-17T17:13:06.298Z,65
2017-04-17T17:14:28.926Z,66.71
2017-04-17T17:15:51.195Z,68.04
2017-04-17T17:17:13.729Z,68.86
2017-04-17T17:18:35.952Z,70.76
2017-04-17T17:19:58.238Z,71.43
2017-04-17T17:21:20.628Z,72.75
2017-04-17T17:22:43.139Z,73.52
2017-04-17T17:24:05.667Z,73.9
2017-04-17T17:25:28.166Z,73.42
2017-04-17T17:26:50.141Z,73.71
2017-04-17T17:28:12.636Z,73.14
2017-04-17T17:29:35.094Z,72.56
2017-04-17T17:30:57.721Z,72.38
2017-04-17T17:32:19.908Z,72.28
2017-04-17T17:33:42.889Z,72.25
2017-04-17T17:35:05.375Z,72.25
2017-04-17T17:36:27.867Z,71.77
2017-04-17T17:37:50.388Z,71.3
2017-04-17T17:39:12.002Z,72.25
2017-04-17T17:40:33.991Z,72.63